createdAt,value
2019-04-01T00:00:52.669Z,100.00
2019-04-01T00:03:21.113Z,100.00
2019-04-01T00:05:49.602Z,100.00
2019-04-01T00:08:18.111Z,100.00
2019-04-01T00:10:46.523Z,100.00
2019-04-01T00:13:14.974Z,100.00
2019-04-01T00:15:43.386Z,100.00
2019-04-01T00:18:11.831Z,100.00
2019-04-01T00:20:40.246Z,100.00
2019-04-01T00:23:08.967Z,100.00
2019-04-01T00:25:37.486Z,100.00
2019-04-01T00:28:05.929Z,100.00
2019-04-01T00:30:34.352Z,100.00
2019-04-01T00:33:02.798Z,100.00
2019-04-01T00:35:31.218Z,100.00
2019-04-01T00:37:59.659Z,100.00
2019-04-01T00:40:28.070Z,100.00
2019-04-01T00:43:03.837Z,100.00
2019-04-01T00:45:33.889Z,100.00
2019-04-01T00:48:02.908Z,100.00
2019-04-01T00:50:31.327Z,100.00
2019-04-01T00:52:59.767Z,100.00
2019-04-01T00:55:28.188Z,100.00
2019-04-01T00:57:56.650Z,100.00
2019-04-01T01:00:25.135Z,100.00
2019-04-01T01:02:53.558Z,100.00
2019-04-01T01:05:22.002Z,100.00
2019-04-01T01:07:50.424Z,100.00
2019-04-01T01:10:18.945Z,100.00
2019-04-01T01:12:47.365Z,100.00
2019-04-01T01:15:16.147Z,100.00
2019-04-01T01:17:44.637Z,100.00
2019-04-01T01:20:13.168Z,100.00
2019-04-01T01:22:41.603Z,100.00
2019-04-01T01:25:10.406Z,100.00
2019-04-01T01:27:38.997Z,100.00
2019-04-01T01:30:07.582Z,100.00
2019-04-01T01:32:36.018Z,100.00
2019-04-01T01:35:05.107Z,100.00
2019-04-01T01:37:33.537Z,100.00
2019-04-01T01:40:02.043Z,100.00
2019-04-01T01:42:30.460Z,100.00
2019-04-01T01:44:58.901Z,100.00
2019-04-01T01:47:27.320Z,100.00
2019-04-01T01:49:55.766Z,100.00
2019-04-01T01:52:24.191Z,100.00
2019-04-01T01:54:52.640Z,100.00
2019-04-01T01:57:21.059Z,100.00
2019-04-01T01:59:49.506Z,100.00
2019-04-01T02:02:17.929Z,100.00
2019-04-01T02:04:46.372Z,100.00
2019-04-01T02:07:14.792Z,100.00
2019-04-01T02:09:43.247Z,100.00
2019-04-01T02:12:11.660Z,100.00
2019-04-01T02:14:40.133Z,100.00
2019-04-01T02:17:08.568Z,100.00
2019-04-01T02:19:36.975Z,100.00
2019-04-01T02:22:05.436Z,100.00
2019-04-01T02:24:33.914Z,100.00
2019-04-01T02:27:02.359Z,100.00
2019-04-01T02:29:30.783Z,100.00
2019-04-01T02:31:59.232Z,100.00
2019-04-01T02:34:27.655Z,100.00
2019-04-01T02:36:56.114Z,100.00
2019-04-01T02:39:24.541Z,100.00
2019-04-01T02:41:52.992Z,100.00
2019-04-01T02:44:21.420Z,100.00
2019-04-01T02:46:49.892Z,100.00
2019-04-01T02:49:18.306Z,100.00
2019-04-01T02:51:46.752Z,100.00
2019-04-01T02:54:15.178Z,100.00
2019-04-01T02:56:43.622Z,100.00
2019-04-01T02:59:12.063Z,100.00
2019-04-01T03:01:40.508Z,100.00
2019-04-01T03:04:08.940Z,100.00
2019-04-01T03:06:37.462Z,100.00
2019-04-01T03:09:07.429Z,100.00
2019-04-01T03:11:35.882Z,100.00
2019-04-01T03:14:04.377Z,100.00
2019-04-01T03:16:32.795Z,100.00
2019-04-01T03:19:01.250Z,100.00
2019-04-01T03:21:29.671Z,100.00
2019-04-01T03:23:58.135Z,100.00
2019-04-01T03:26:26.561Z,100.00
2019-04-01T03:28:55.019Z,100.00
2019-04-01T03:31:23.453Z,100.00
2019-04-01T03:33:51.893Z,100.00
2019-04-01T03:36:20.329Z,100.00
2019-04-01T03:38:48.784Z,100.00
2019-04-01T03:41:17.360Z,100.00
2019-04-01T03:43:45.830Z,100.00
2019-04-01T03:46:14.249Z,100.00
2019-04-01T03:48:42.704Z,100.00
2019-04-01T03:51:11.113Z,100.00
2019-04-01T03:53:39.562Z,100.00
2019-04-01T03:56:07.992Z,100.00
2019-04-01T03:58:36.425Z,100.00
2019-04-01T04:01:04.910Z,100.00
2019-04-01T04:03:33.362Z,100.00
2019-04-01T04:06:01.786Z,100.00
2019-04-01T04:08:30.263Z,100.00
2019-04-01T04:10:58.688Z,100.00
2019-04-01T04:13:27.141Z,100.00
2019-04-01T04:15:55.650Z,100.00
2019-04-01T04:18:24.101Z,100.00
2019-04-01T04:20:52.545Z,100.00
2019-04-01T04:23:20.980Z,100.00
2019-04-01T04:25:50.200Z,100.00
2019-04-01T04:28:18.973Z,100.00
2019-04-01T04:30:47.673Z,100.00
2019-04-01T04:33:16.130Z,100.00
2019-04-01T04:35:44.565Z,100.00
2019-04-01T04:38:13.053Z,100.00
2019-04-01T04:40:41.514Z,100.00
2019-04-01T04:43:09.925Z,100.00
2019-04-01T04:45:38.379Z,100.00
2019-04-01T04:48:06.800Z,100.00
2019-04-01T04:50:35.251Z,100.00
2019-04-01T04:53:03.677Z,100.00
2019-04-01T04:55:32.195Z,100.00
2019-04-01T04:58:00.625Z,100.00
2019-04-01T05:00:29.146Z,100.00
2019-04-01T05:02:57.643Z,100.00
2019-04-01T05:05:26.105Z,100.00
2019-04-01T05:07:54.527Z,100.00
2019-04-01T05:10:23.048Z,100.00
2019-04-01T05:12:51.479Z,100.00
2019-04-01T05:15:20.000Z,100.00
2019-04-01T05:17:48.425Z,100.00
2019-04-01T05:20:16.975Z,100.00
2019-04-01T05:22:46.061Z,100.00
2019-04-01T05:25:14.584Z,100.00
2019-04-01T05:27:43.082Z,100.00
2019-04-01T05:30:11.561Z,100.00
2019-04-01T05:32:40.589Z,100.00
2019-04-01T05:35:09.233Z,100.00
2019-04-01T05:37:37.846Z,100.00
2019-04-01T05:40:07.600Z,100.00
2019-04-01T05:42:36.812Z,100.00
2019-04-01T05:45:07.568Z,100.00
2019-04-01T05:47:37.887Z,100.00
2019-04-01T05:50:07.083Z,100.00
2019-04-01T05:52:35.588Z,100.00
2019-04-01T05:55:08.733Z,100.00
2019-04-01T05:57:35.770Z,100.00
2019-04-01T06:00:06.397Z,100.00
2019-04-01T06:02:34.908Z,96.74
2019-04-01T06:05:03.862Z,96.74
2019-04-01T06:07:32.363Z,93.40
2019-04-01T06:10:00.770Z,90.69
2019-04-01T06:12:30.079Z,87.37
2019-04-01T06:14:58.566Z,85.10
2019-04-01T06:17:27.080Z,83.95
2019-04-01T06:19:55.555Z,85.21
2019-04-01T06:22:24.054Z,95.62
2019-04-01T06:24:52.466Z,95.62
2019-04-01T06:27:20.978Z,100.00
2019-04-01T06:29:49.389Z,100.00
2019-04-01T06:32:17.829Z,100.00
2019-04-01T06:34:52.618Z,100.00
2019-04-01T06:37:16.810Z,100.00
2019-04-01T06:39:45.288Z,100.00
2019-04-01T06:42:13.696Z,100.00
2019-04-01T06:44:42.132Z,100.00
2019-04-01T06:47:10.552Z,100.00
2019-04-01T06:49:39.052Z,100.00
2019-04-01T06:52:07.529Z,100.00
2019-04-01T06:54:36.042Z,100.00
2019-04-01T06:57:04.514Z,100.00
2019-04-01T06:59:33.032Z,100.00
2019-04-01T07:02:01.444Z,100.00
2019-04-01T07:04:29.886Z,100.00
2019-04-01T07:06:58.299Z,100.00
2019-04-01T07:09:26.891Z,100.00
2019-04-01T07:11:55.373Z,100.00
2019-04-01T07:14:23.885Z,100.00
2019-04-01T07:16:52.343Z,100.00
2019-04-01T07:19:20.817Z,100.00
2019-04-01T07:21:49.224Z,100.00
2019-04-01T07:24:17.741Z,100.00
2019-04-01T07:26:46.146Z,100.00
2019-04-01T07:29:14.853Z,100.00
2019-04-01T07:31:43.269Z,100.00
2019-04-01T07:34:11.788Z,100.00
2019-04-01T07:36:40.267Z,100.00
2019-04-01T07:39:08.775Z,100.00
2019-04-01T07:41:37.264Z,100.00
2019-04-01T07:44:05.730Z,100.00
2019-04-01T07:46:34.226Z,100.00
2019-04-01T07:49:02.893Z,100.00
2019-04-01T07:51:31.396Z,100.00
2019-04-01T07:53:59.893Z,100.00
2019-04-01T07:56:28.400Z,95.77
2019-04-01T07:58:56.804Z,95.77
2019-04-01T08:01:25.246Z,95.64
2019-04-01T08:03:53.646Z,95.08
2019-04-01T08:06:22.153Z,92.90
2019-04-01T08:08:50.833Z,92.90
2019-04-01T08:11:19.345Z,86.91
2019-04-01T08:13:47.820Z,86.91
2019-04-01T08:16:16.266Z,84.20
2019-04-01T08:18:44.677Z,85.40
2019-04-01T08:21:13.183Z,83.62
2019-04-01T08:23:41.676Z,86.12
2019-04-01T08:26:10.181Z,86.12
2019-04-01T08:28:38.660Z,79.64
2019-04-01T08:31:07.364Z,79.64
2019-04-01T08:33:35.841Z,76.45
2019-04-01T08:36:04.349Z,76.45
2019-04-01T08:38:32.827Z,74.73
2019-04-01T08:41:02.002Z,74.33
2019-04-01T08:43:30.418Z,71.34
2019-04-01T08:45:58.925Z,71.60
2019-04-01T08:48:27.805Z,70.17
2019-04-01T08:50:56.327Z,72.62
2019-04-01T08:53:24.803Z,71.77
2019-04-01T08:56:00.648Z,66.90
2019-04-01T08:58:23.437Z,65.90
2019-04-01T09:00:51.915Z,66.58
2019-04-01T09:03:20.351Z,65.10
2019-04-01T09:05:48.929Z,64.25
2019-04-01T09:08:17.342Z,67.35
2019-04-01T09:10:46.830Z,63.68
2019-04-01T09:13:15.338Z,63.86
2019-04-01T09:15:43.819Z,62.35
2019-04-01T09:18:12.250Z,62.38
2019-04-01T09:20:40.653Z,60.10
2019-04-01T09:23:09.155Z,59.10
2019-04-01T09:25:37.564Z,60.05
2019-04-01T09:28:06.073Z,58.29
2019-04-01T09:30:34.659Z,59.67
2019-04-01T09:33:03.100Z,60.23
2019-04-01T09:35:31.510Z,57.70
2019-04-01T09:37:59.939Z,59.83
2019-04-01T09:40:28.351Z,58.32
2019-04-01T09:42:56.783Z,61.17
2019-04-01T09:45:25.266Z,61.16
2019-04-01T09:47:53.702Z,59.77
2019-04-01T09:50:22.178Z,62.28
2019-04-01T09:52:50.690Z,63.53
2019-04-01T09:55:19.967Z,63.49
2019-04-01T09:57:48.406Z,61.47
2019-04-01T10:00:16.899Z,60.29
2019-04-01T10:02:45.373Z,58.00
2019-04-01T10:05:13.879Z,55.81
2019-04-01T10:07:42.488Z,58.29
2019-04-01T10:10:11.351Z,58.28
2019-04-01T10:12:39.761Z,58.92
2019-04-01T10:15:08.543Z,60.33
2019-04-01T10:17:37.017Z,58.09
2019-04-01T10:20:07.592Z,59.89
2019-04-01T10:22:35.999Z,58.52
2019-04-01T10:25:05.372Z,58.39
2019-04-01T10:27:33.774Z,57.70
2019-04-01T10:30:02.226Z,55.62
2019-04-01T10:32:30.625Z,57.10
2019-04-01T10:34:59.133Z,61.41
2019-04-01T10:37:27.544Z,57.06
2019-04-01T10:39:55.981Z,54.82
2019-04-01T10:42:24.390Z,55.62
2019-04-01T10:44:52.895Z,55.77
2019-04-01T10:47:21.336Z,54.53
2019-04-01T10:49:49.740Z,54.91
2019-04-01T10:52:18.235Z,53.41
2019-04-01T10:54:46.768Z,54.69
2019-04-01T10:57:15.826Z,53.94
2019-04-01T10:59:44.351Z,54.88
2019-04-01T11:02:12.887Z,54.40
2019-04-01T11:04:41.394Z,53.99
2019-04-01T11:07:09.949Z,53.09
2019-04-01T11:09:38.909Z,52.50
2019-04-01T11:12:07.466Z,53.46
2019-04-01T11:14:35.950Z,53.19
2019-04-01T11:17:04.749Z,54.29
2019-04-01T11:19:33.243Z,51.88
2019-04-01T11:22:01.682Z,51.07
2019-04-01T11:24:30.085Z,51.40
2019-04-01T11:26:58.526Z,50.10
2019-04-01T11:29:27.000Z,53.38
2019-04-01T11:31:55.436Z,48.80
2019-04-01T11:34:23.939Z,47.46
2019-04-01T11:36:52.802Z,48.70
2019-04-01T11:39:21.257Z,47.98
2019-04-01T11:41:49.696Z,46.98
2019-04-01T11:44:18.181Z,48.32
2019-04-01T11:46:46.659Z,47.41
2019-04-01T11:49:15.266Z,49.20
2019-04-01T11:51:43.699Z,48.35
2019-04-01T11:54:12.119Z,48.48
2019-04-01T11:56:41.524Z,47.52
2019-04-01T11:59:10.288Z,45.73
2019-04-01T12:01:38.749Z,45.28
2019-04-01T12:04:07.220Z,46.47
2019-04-01T12:06:35.674Z,44.84
2019-04-01T12:09:05.808Z,46.74
2019-04-01T12:11:34.797Z,47.20
2019-04-01T12:14:05.089Z,48.63
2019-04-01T12:16:33.376Z,46.68
2019-04-01T12:19:01.855Z,44.90
2019-04-01T12:21:30.309Z,44.56
2019-04-01T12:23:58.719Z,44.44
2019-04-01T12:26:27.209Z,44.69
2019-04-01T12:28:55.650Z,46.78
2019-04-01T12:31:24.130Z,45.38
2019-04-01T12:33:52.571Z,46.02
2019-04-01T12:36:20.981Z,47.44
2019-04-01T12:38:49.471Z,46.02
2019-04-01T12:41:18.320Z,46.00
2019-04-01T12:43:47.520Z,45.16
2019-04-01T12:46:16.343Z,45.16
2019-04-01T12:48:44.846Z,42.65
2019-04-01T12:51:13.322Z,42.32
2019-04-01T12:53:41.837Z,43.31
2019-04-01T12:56:10.258Z,45.37
2019-04-01T12:58:38.844Z,42.60
2019-04-01T13:01:07.248Z,41.75
2019-04-01T13:03:35.693Z,42.17
2019-04-01T13:06:04.104Z,44.41
2019-04-01T13:08:32.617Z,41.73
2019-04-01T13:11:01.038Z,42.29
2019-04-01T13:13:29.485Z,42.50
2019-04-01T13:15:57.973Z,43.63
2019-04-01T13:18:26.426Z,42.59
2019-04-01T13:20:54.904Z,42.18
2019-04-01T13:23:23.342Z,42.13
2019-04-01T13:25:51.755Z,43.60
2019-04-01T13:28:20.191Z,44.34
2019-04-01T13:30:48.605Z,44.23
2019-04-01T13:33:17.391Z,43.49
2019-04-01T13:35:45.842Z,44.96
2019-04-01T13:38:15.248Z,43.59
2019-04-01T13:40:44.417Z,44.21
2019-04-01T13:43:16.728Z,45.52
2019-04-01T13:45:43.329Z,44.16
2019-04-01T13:48:11.874Z,44.10
2019-04-01T13:50:40.324Z,43.38
2019-04-01T13:53:15.259Z,42.61
2019-04-01T13:55:43.966Z,41.21
2019-04-01T13:58:12.445Z,40.71
2019-04-01T14:00:40.894Z,42.15
2019-04-01T14:03:11.174Z,41.40
2019-04-01T14:05:39.548Z,42.60
2019-04-01T14:08:08.029Z,42.32
2019-04-01T14:10:36.472Z,43.56
2019-04-01T14:13:04.952Z,42.23
2019-04-01T14:15:33.461Z,41.32
2019-04-01T14:18:01.873Z,40.87
2019-04-01T14:20:30.312Z,40.79
2019-04-01T14:22:58.726Z,40.90
2019-04-01T14:25:27.163Z,42.02
2019-04-01T14:27:55.576Z,41.66
2019-04-01T14:30:24.017Z,41.92
2019-04-01T14:32:52.431Z,42.51
2019-04-01T14:35:23.679Z,41.14
2019-04-01T14:37:51.009Z,40.72
2019-04-01T14:40:19.518Z,40.22
2019-04-01T14:42:47.930Z,40.76
2019-04-01T14:45:16.442Z,41.63
2019-04-01T14:47:56.513Z,41.49
2019-04-01T14:50:15.297Z,41.04
2019-04-01T14:52:43.716Z,42.15
2019-04-01T14:55:12.227Z,41.75
2019-04-01T14:57:40.646Z,42.39
2019-04-01T15:00:13.403Z,42.92
2019-04-01T15:02:41.943Z,40.50
2019-04-01T15:05:10.901Z,41.50
2019-04-01T15:07:39.401Z,40.08
2019-04-01T15:10:07.893Z,39.63
2019-04-01T15:12:36.326Z,40.40
2019-04-01T15:15:06.884Z,40.35
2019-04-01T15:17:37.017Z,40.50
2019-04-01T15:20:08.519Z,40.35
2019-04-01T15:22:36.965Z,39.95
2019-04-01T15:25:06.717Z,39.56
2019-04-01T15:27:35.157Z,39.37
2019-04-01T15:30:03.846Z,39.76
2019-04-01T15:32:32.282Z,40.97
2019-04-01T15:35:00.693Z,40.98
2019-04-01T15:37:32.004Z,41.11
2019-04-01T15:39:59.290Z,41.79
2019-04-01T15:42:27.732Z,42.17
2019-04-01T15:44:56.139Z,40.51
2019-04-01T15:47:24.581Z,39.54
2019-04-01T15:49:53.006Z,39.17
2019-04-01T15:52:21.450Z,40.33
2019-04-01T15:54:49.908Z,39.65
2019-04-01T15:57:18.337Z,40.25
2019-04-01T15:59:46.752Z,39.51
2019-04-01T16:02:15.200Z,39.96
2019-04-01T16:04:43.609Z,40.00
2019-04-01T16:07:12.061Z,40.26
2019-04-01T16:09:40.469Z,40.45
2019-04-01T16:12:08.952Z,40.18
2019-04-01T16:14:37.409Z,40.34
2019-04-01T16:17:05.818Z,39.13
2019-04-01T16:19:34.262Z,39.17
2019-04-01T16:22:02.675Z,37.79
2019-04-01T16:24:31.125Z,38.09
2019-04-01T16:26:59.534Z,38.74
2019-04-01T16:29:27.973Z,38.71
2019-04-01T16:31:57.740Z,38.47
2019-04-01T16:34:26.289Z,38.68
2019-04-01T16:36:54.707Z,38.67
2019-04-01T16:39:23.145Z,39.06
2019-04-01T16:41:51.630Z,39.03
2019-04-01T16:44:20.063Z,38.86
2019-04-01T16:46:48.475Z,39.16
2019-04-01T16:49:16.980Z,38.98
2019-04-01T16:51:45.456Z,39.21
2019-04-01T16:54:13.897Z,38.93
2019-04-01T16:56:42.305Z,40.05
2019-04-01T16:59:10.742Z,39.46
2019-04-01T17:01:41.571Z,39.55
2019-04-01T17:04:09.321Z,39.85
2019-04-01T17:06:37.731Z,40.39
2019-04-01T17:09:08.002Z,40.80
2019-04-01T17:11:36.765Z,40.42
2019-04-01T17:14:08.790Z,41.38
2019-04-01T17:16:35.407Z,41.22
2019-04-01T17:19:04.135Z,41.54
2019-04-01T17:21:33.217Z,41.76
2019-04-01T17:24:02.630Z,42.20
2019-04-01T17:26:31.054Z,42.73
2019-04-01T17:28:59.465Z,42.46
2019-04-01T17:31:27.903Z,42.29
2019-04-01T17:33:56.311Z,43.17
2019-04-01T17:36:24.750Z,43.70
2019-04-01T17:38:53.160Z,43.72
2019-04-01T17:41:21.764Z,43.31
2019-04-01T17:43:50.248Z,43.75
2019-04-01T17:46:18.689Z,44.46
2019-04-01T17:48:47.089Z,44.65
2019-04-01T17:51:15.531Z,45.42
2019-04-01T17:53:44.102Z,46.14
2019-04-01T17:56:12.609Z,46.32
2019-04-01T17:58:41.017Z,46.23
2019-04-01T18:01:10.541Z,46.49
2019-04-01T18:03:39.320Z,46.66
2019-04-01T18:06:07.814Z,47.87
2019-04-01T18:08:36.225Z,47.71
2019-04-01T18:11:04.740Z,48.21
2019-04-01T18:13:33.148Z,48.57
2019-04-01T18:16:01.745Z,48.87
2019-04-01T18:18:30.150Z,49.31
2019-04-01T18:20:58.587Z,49.24
2019-04-01T18:23:27.023Z,50.74
2019-04-01T18:25:55.424Z,50.74
2019-04-01T18:28:23.871Z,58.93
2019-04-01T18:30:52.281Z,53.78
2019-04-01T18:33:20.721Z,52.88
2019-04-01T18:35:49.128Z,53.42
2019-04-01T18:38:17.615Z,52.99
2019-04-01T18:40:45.979Z,53.02
2019-04-01T18:43:14.441Z,53.02
2019-04-01T18:45:42.851Z,53.63
2019-04-01T18:48:14.444Z,53.63
2019-04-01T18:50:43.063Z,53.08
2019-04-01T18:53:12.019Z,55.11
2019-04-01T18:55:40.424Z,55.11
2019-04-01T18:58:08.870Z,54.89
2019-04-01T19:00:37.267Z,55.94
2019-04-01T19:03:05.708Z,56.37
2019-04-01T19:05:34.109Z,56.37
2019-04-01T19:08:04.190Z,57.05
2019-04-01T19:10:32.819Z,59.26
2019-04-01T19:13:06.181Z,59.26
2019-04-01T19:15:32.489Z,55.72
2019-04-01T19:18:01.375Z,57.56
2019-04-01T19:20:30.538Z,57.56
2019-04-01T19:22:59.077Z,58.60
2019-04-01T19:25:27.554Z,60.07
2019-04-01T19:27:56.071Z,60.07
2019-04-01T19:30:24.627Z,59.25
2019-04-01T19:32:53.070Z,59.25
2019-04-01T19:35:21.473Z,58.80
2019-04-01T19:37:49.915Z,58.80
2019-04-01T19:40:20.494Z,59.01
2019-04-01T19:42:48.744Z,62.20
2019-04-01T19:45:17.323Z,61.11
2019-04-01T19:47:45.765Z,58.78
2019-04-01T19:50:18.212Z,60.48
2019-04-01T19:52:45.627Z,60.48
2019-04-01T19:55:14.132Z,59.85
2019-04-01T19:57:42.548Z,60.30
2019-04-01T20:00:11.549Z,60.30
2019-04-01T20:02:39.962Z,60.89
2019-04-01T20:05:08.557Z,61.36
2019-04-01T20:07:36.968Z,63.57
2019-04-01T20:10:06.250Z,63.57
2019-04-01T20:12:34.658Z,62.19
2019-04-01T20:15:04.533Z,63.08
2019-04-01T20:17:32.938Z,63.08
2019-04-01T20:20:02.399Z,63.25
2019-04-01T20:22:31.126Z,60.68
2019-04-01T20:24:59.568Z,62.89
2019-04-01T20:27:27.983Z,61.21
2019-04-01T20:29:56.423Z,63.24
2019-04-01T20:32:24.825Z,61.92
2019-04-01T20:34:57.209Z,61.84
2019-04-01T20:37:23.420Z,61.84
2019-04-01T20:39:51.885Z,63.38
2019-04-01T20:42:20.320Z,62.51
2019-04-01T20:44:48.730Z,61.81
2019-04-01T20:47:17.159Z,61.98
2019-04-01T20:49:45.578Z,63.50
2019-04-01T20:52:14.086Z,63.50
2019-04-01T20:54:42.498Z,63.43
2019-04-01T20:57:10.933Z,65.13
2019-04-01T20:59:40.915Z,65.13
2019-04-01T21:02:09.626Z,65.77
2019-04-01T21:04:38.029Z,66.08
2019-04-01T21:07:06.535Z,65.78
2019-04-01T21:09:35.011Z,68.22
2019-04-01T21:12:03.440Z,67.89
2019-04-01T21:14:32.314Z,67.35
2019-04-01T21:17:01.067Z,68.30
2019-04-01T21:19:29.474Z,68.42
2019-04-01T21:21:57.911Z,68.19
2019-04-01T21:24:26.325Z,69.08
2019-04-01T21:26:55.813Z,69.85
2019-04-01T21:29:24.348Z,70.62
2019-04-01T21:31:52.782Z,71.41
2019-04-01T21:34:21.199Z,71.77
2019-04-01T21:36:49.630Z,71.91
2019-04-01T21:39:18.048Z,73.86
2019-04-01T21:41:46.554Z,74.02
2019-04-01T21:44:14.963Z,75.08
2019-04-01T21:46:43.684Z,76.50
2019-04-01T21:49:12.258Z,75.28
2019-04-01T21:51:40.693Z,75.51
2019-04-01T21:54:09.100Z,75.46
2019-04-01T21:56:37.513Z,75.55
2019-04-01T21:59:05.955Z,76.43
2019-04-01T22:01:34.499Z,77.10
2019-04-01T22:04:02.939Z,77.79
2019-04-01T22:06:31.344Z,77.74
2019-04-01T22:08:59.779Z,77.32
2019-04-01T22:11:28.186Z,77.50
2019-04-01T22:13:56.621Z,77.27
2019-04-01T22:16:25.028Z,77.42
2019-04-01T22:18:53.469Z,78.24
2019-04-01T22:21:21.876Z,78.38
2019-04-01T22:23:50.312Z,77.88
2019-04-01T22:26:18.727Z,78.61
2019-04-01T22:28:47.169Z,78.42
2019-04-01T22:31:15.700Z,78.80
2019-04-01T22:33:44.088Z,78.00
2019-04-01T22:36:12.491Z,77.52
2019-04-01T22:38:40.925Z,77.58
2019-04-01T22:41:09.341Z,77.94
2019-04-01T22:43:37.775Z,78.99
2019-04-01T22:46:06.259Z,79.34
2019-04-01T22:48:34.690Z,80.01
2019-04-01T22:51:03.103Z,80.29
2019-04-01T22:53:32.325Z,80.79
2019-04-01T22:56:01.639Z,80.81
2019-04-01T22:58:30.079Z,80.24
2019-04-01T23:00:58.482Z,80.60
2019-04-01T23:03:26.923Z,80.84
2019-04-01T23:05:55.718Z,80.93
2019-04-01T23:08:24.325Z,81.56
2019-04-01T23:10:52.803Z,82.68
2019-04-01T23:13:21.315Z,83.36
2019-04-01T23:15:49.723Z,81.60
2019-04-01T23:18:18.263Z,81.04
2019-04-01T23:20:46.709Z,81.83
2019-04-01T23:23:15.126Z,82.71
2019-04-01T23:25:43.626Z,85.84
2019-04-01T23:28:12.108Z,82.16
2019-04-01T23:30:40.548Z,82.71
2019-04-01T23:33:08.953Z,83.69
2019-04-01T23:35:37.456Z,84.20
2019-04-01T23:38:06.259Z,82.65
2019-04-01T23:40:35.549Z,83.02
2019-04-01T23:43:04.040Z,82.62
2019-04-01T23:45:32.481Z,81.61
2019-04-01T23:48:00.891Z,83.03
2019-04-01T23:50:29.328Z,83.73
2019-04-01T23:52:57.740Z,84.75
2019-04-01T23:55:26.178Z,83.97
2019-04-01T23:57:54.589Z,84.22
